createdAt,value
2023-02-14T00:00:08.416Z,21.4
2023-02-14T00:01:12.762Z,21.39
2023-02-14T00:02:17.149Z,21.43
2023-02-14T00:03:21.606Z,21.41
2023-02-14T00:04:26.012Z,21.42
2023-02-14T00:05:30.588Z,21.41
2023-02-14T00:06:35.025Z,21.36
2023-02-14T00:07:39.341Z,21.33
2023-02-14T00:08:43.607Z,21.33
2023-02-14T00:09:47.941Z,21.32
2023-02-14T00:10:52.203Z,21.31
2023-02-14T00:11:56.497Z,21.33
2023-02-14T00:13:00.799Z,21.32
2023-02-14T00:14:05.129Z,21.3
2023-02-14T00:15:09.437Z,21.29
2023-02-14T00:16:13.754Z,21.3
2023-02-14T00:17:18.220Z,21.31
2023-02-14T00:18:22.524Z,21.33
2023-02-14T00:19:26.847Z,21.33
2023-02-14T00:20:31.132Z,21.29
2023-02-14T00:21:35.420Z,21.28
2023-02-14T00:22:39.729Z,21.31
2023-02-14T00:23:44.029Z,21.26
2023-02-14T00:24:48.317Z,21.27
2023-02-14T00:25:52.612Z,21.32
2023-02-14T00:26:56.907Z,21.32
2023-02-14T00:28:01.259Z,21.32
2023-02-14T00:29:05.580Z,21.27
2023-02-14T00:30:09.903Z,21.25
2023-02-14T00:31:14.505Z,21.3
2023-02-14T00:32:19.291Z,21.26
2023-02-14T00:33:23.572Z,21.31
2023-02-14T00:34:28.375Z,21.31
2023-02-14T00:35:32.693Z,21.33
2023-02-14T00:36:36.986Z,21.33
2023-02-14T00:37:41.326Z,21.33
2023-02-14T00:38:45.644Z,21.36
2023-02-14T00:39:49.981Z,21.37
2023-02-14T00:40:54.335Z,21.36
2023-02-14T00:41:58.822Z,21.32
2023-02-14T00:43:03.117Z,21.3
2023-02-14T00:44:07.379Z,21.26
2023-02-14T00:45:11.665Z,21.24
2023-02-14T00:46:16.014Z,21.24
2023-02-14T00:47:20.430Z,21.22
2023-02-14T00:48:24.719Z,21.23
2023-02-14T00:49:29.001Z,21.22
2023-02-14T00:50:33.294Z,21.21
2023-02-14T00:51:37.601Z,21.21
2023-02-14T00:52:41.894Z,21.22
2023-02-14T00:53:47.219Z,21.19
2023-02-14T00:54:51.503Z,21.23
2023-02-14T00:55:55.799Z,21.21
2023-02-14T00:57:00.144Z,21.18
2023-02-14T00:58:04.514Z,21.19
2023-02-14T00:59:08.795Z,21.19
2023-02-14T01:00:13.083Z,21.2
2023-02-14T01:01:17.456Z,21.18
2023-02-14T01:02:21.974Z,21.19
2023-02-14T01:03:26.436Z,21.17
2023-02-14T01:04:30.798Z,21.17
2023-02-14T01:05:35.112Z,21.19
2023-02-14T01:06:39.445Z,21.18
2023-02-14T01:07:43.733Z,21.16
2023-02-14T01:08:48.098Z,21.15
2023-02-14T01:09:52.639Z,21.16
2023-02-14T01:10:57.205Z,21.18
2023-02-14T01:12:02.683Z,21.16
2023-02-14T01:13:07.010Z,21.15
2023-02-14T01:14:11.279Z,21.17
2023-02-14T01:15:15.559Z,21.2
2023-02-14T01:16:19.927Z,21.18
2023-02-14T01:17:24.397Z,21.18
2023-02-14T01:18:28.680Z,21.18
2023-02-14T01:19:33.046Z,21.19
2023-02-14T01:20:37.369Z,21.16
2023-02-14T01:21:41.754Z,21.14
2023-02-14T01:22:46.128Z,21.16
2023-02-14T01:23:50.411Z,21.18
2023-02-14T01:24:54.832Z,21.18
2023-02-14T01:25:59.159Z,21.15
2023-02-14T01:27:03.434Z,21.17
2023-02-14T01:28:07.735Z,21.2
2023-02-14T01:29:12.040Z,21.19
2023-02-14T01:30:16.343Z,21.16
2023-02-14T01:31:21.007Z,21.19
2023-02-14T01:32:25.795Z,21.16
2023-02-14T01:33:30.125Z,21.15
2023-02-14T01:34:34.452Z,21.16
2023-02-14T01:35:38.741Z,21.15
2023-02-14T01:36:43.262Z,21.13
2023-02-14T01:37:47.544Z,21.12
2023-02-14T01:38:51.822Z,21.12
2023-02-14T01:39:56.115Z,21.11
2023-02-14T01:41:00.786Z,21.1
2023-02-14T01:42:05.452Z,21.11
2023-02-14T01:43:09.774Z,21.11
2023-02-14T01:44:14.102Z,21.1
2023-02-14T01:45:18.432Z,21.11
2023-02-14T01:46:22.709Z,21.12
2023-02-14T01:47:27.003Z,21.13
2023-02-14T01:48:31.296Z,21.12
2023-02-14T01:49:35.599Z,21.11
2023-02-14T01:50:39.906Z,21.1
2023-02-14T01:51:44.176Z,21.11
2023-02-14T01:52:48.459Z,21.12
2023-02-14T01:53:52.746Z,21.14
2023-02-14T01:54:57.045Z,21.11
2023-02-14T01:56:01.348Z,21.12
2023-02-14T01:57:05.616Z,21.12
2023-02-14T01:58:09.899Z,21.12
2023-02-14T01:59:14.373Z,21.12
2023-02-14T02:00:18.726Z,21.11
2023-02-14T02:01:23.078Z,21.13
2023-02-14T02:02:27.685Z,21.13
2023-02-14T02:03:32.152Z,21.13
2023-02-14T02:04:36.445Z,21.11
2023-02-14T02:05:40.743Z,21.1
2023-02-14T02:06:45.026Z,21.1
2023-02-14T02:07:49.416Z,21.1
2023-02-14T02:08:53.991Z,21.1
2023-02-14T02:09:58.278Z,21.09
2023-02-14T02:11:02.602Z,21.08
2023-02-14T02:12:06.911Z,21.11
2023-02-14T02:13:11.219Z,21.1
2023-02-14T02:14:15.517Z,21.08
2023-02-14T02:15:19.800Z,21.09
2023-02-14T02:16:24.144Z,21.06
2023-02-14T02:17:28.585Z,21.05
2023-02-14T02:18:32.897Z,21.08
2023-02-14T02:19:37.214Z,21.09
2023-02-14T02:20:41.478Z,21.07
2023-02-14T02:21:45.785Z,21.09
2023-02-14T02:22:50.061Z,21.13
2023-02-14T02:23:54.375Z,21.11
2023-02-14T02:24:58.655Z,21.1
2023-02-14T02:26:02.969Z,21.13
2023-02-14T02:27:08.549Z,21.1
2023-02-14T02:28:12.993Z,21.1
2023-02-14T02:29:17.300Z,21.09
2023-02-14T02:30:21.619Z,21.11
2023-02-14T02:31:26.476Z,21.09
2023-02-14T02:32:31.098Z,21.08
2023-02-14T02:33:35.382Z,21.11
2023-02-14T02:34:39.666Z,21.11
2023-02-14T02:35:43.952Z,21.1
2023-02-14T02:36:48.245Z,21.09
2023-02-14T02:37:52.551Z,21.08
2023-02-14T02:38:56.820Z,21.06
2023-02-14T02:40:01.156Z,21.09
2023-02-14T02:41:05.501Z,21.08
2023-02-14T02:42:09.980Z,21.05
2023-02-14T02:43:14.277Z,21.05
2023-02-14T02:44:18.626Z,21.06
2023-02-14T02:45:22.919Z,21.05
2023-02-14T02:46:27.281Z,21.06
2023-02-14T02:47:31.748Z,21.06
2023-02-14T02:48:36.109Z,21.03
2023-02-14T02:49:40.398Z,21.03
2023-02-14T02:50:44.698Z,21.01
2023-02-14T02:51:49.014Z,21.02
2023-02-14T02:52:53.287Z,21.06
2023-02-14T02:53:57.587Z,21.03
2023-02-14T02:55:01.903Z,21.03
2023-02-14T02:56:06.285Z,21.02
2023-02-14T02:57:10.585Z,21.06
2023-02-14T02:58:14.873Z,21.07
2023-02-14T02:59:19.186Z,21.07
2023-02-14T03:00:23.466Z,21.05
2023-02-14T03:01:27.907Z,21.04
2023-02-14T03:02:32.381Z,21.06
2023-02-14T03:03:36.878Z,21.04
2023-02-14T03:04:41.221Z,21.07
2023-02-14T03:05:45.769Z,21.08
2023-02-14T03:06:50.063Z,21.07
2023-02-14T03:07:54.336Z,21.07
2023-02-14T03:08:58.664Z,21.06
2023-02-14T03:10:02.946Z,21.06
2023-02-14T03:11:07.242Z,21.05
2023-02-14T03:12:11.514Z,21.04
2023-02-14T03:13:15.851Z,21.04
2023-02-14T03:14:20.163Z,21.05
2023-02-14T03:15:24.532Z,21.06
2023-02-14T03:16:28.971Z,21.04
2023-02-14T03:17:33.271Z,21.03
2023-02-14T03:18:37.547Z,21.05
2023-02-14T03:19:41.859Z,21.03
2023-02-14T03:20:46.148Z,21.01
2023-02-14T03:21:50.431Z,21
2023-02-14T03:22:54.738Z,21.03
2023-02-14T03:23:59.018Z,21.03
2023-02-14T03:25:03.281Z,20.99
2023-02-14T03:26:07.603Z,21.02
2023-02-14T03:27:11.939Z,21.04
2023-02-14T03:28:16.245Z,21.04
2023-02-14T03:29:20.540Z,21.02
2023-02-14T03:30:24.912Z,21.02
2023-02-14T03:31:29.562Z,21.02
2023-02-14T03:32:34.257Z,21
2023-02-14T03:33:38.597Z,21.01
2023-02-14T03:34:42.907Z,21
2023-02-14T03:35:47.257Z,21
2023-02-14T03:36:51.544Z,21
2023-02-14T03:37:55.829Z,21.01
2023-02-14T03:39:00.150Z,21
2023-02-14T03:40:04.439Z,21
2023-02-14T03:41:08.735Z,21
2023-02-14T03:42:13.075Z,20.99
2023-02-14T03:43:17.373Z,21
2023-02-14T03:44:21.648Z,21.01
2023-02-14T03:45:25.985Z,21.02
2023-02-14T03:46:30.467Z,21.03
2023-02-14T03:47:35.215Z,21.03
2023-02-14T03:48:39.494Z,21.02
2023-02-14T03:49:43.768Z,20.99
2023-02-14T03:50:48.303Z,21.01
2023-02-14T03:51:52.616Z,21.02
2023-02-14T03:52:56.970Z,21.04
2023-02-14T03:54:01.242Z,21.03
2023-02-14T03:55:05.587Z,21.01
2023-02-14T03:56:09.956Z,21.03
2023-02-14T03:57:14.244Z,21.04
2023-02-14T03:58:18.706Z,21.03
2023-02-14T03:59:22.984Z,20.99
2023-02-14T04:00:27.414Z,20.99
2023-02-14T04:01:31.814Z,21.01
2023-02-14T04:02:36.258Z,21.01
2023-02-14T04:03:40.634Z,21.01
2023-02-14T04:04:45.156Z,20.98
2023-02-14T04:05:49.437Z,20.99
2023-02-14T04:06:53.737Z,21
2023-02-14T04:07:58.041Z,21
2023-02-14T04:09:02.320Z,20.98
2023-02-14T04:10:06.648Z,20.95
2023-02-14T04:11:10.962Z,20.98
2023-02-14T04:12:15.534Z,20.98
2023-02-14T04:13:39.598Z,20.95
2023-02-14T04:14:43.862Z,20.94
2023-02-14T04:15:48.218Z,20.98
2023-02-14T04:16:52.920Z,20.96
2023-02-14T04:17:57.230Z,20.97
2023-02-14T04:19:01.511Z,20.99
2023-02-14T04:20:05.802Z,21.01
2023-02-14T04:21:10.078Z,21.04
2023-02-14T04:22:14.408Z,21.02
2023-02-14T04:23:18.679Z,21.01
2023-02-14T04:24:22.993Z,21.04
2023-02-14T04:25:27.302Z,21.04
2023-02-14T04:26:31.574Z,21.04
2023-02-14T04:27:35.871Z,21.05
2023-02-14T04:28:40.156Z,21.04
2023-02-14T04:29:44.667Z,21.01
2023-02-14T04:30:48.994Z,20.99
2023-02-14T04:31:53.521Z,20.95
2023-02-14T04:32:58.226Z,20.94
2023-02-14T04:34:02.495Z,20.91
2023-02-14T04:35:06.782Z,20.92
2023-02-14T04:36:11.138Z,20.92
2023-02-14T04:37:15.411Z,20.91
2023-02-14T04:38:19.696Z,20.91
2023-02-14T04:39:24.008Z,20.93
2023-02-14T04:40:28.301Z,20.91
2023-02-14T04:41:32.634Z,20.91
2023-02-14T04:42:36.980Z,20.91
2023-02-14T04:43:41.302Z,20.92
2023-02-14T04:44:45.609Z,20.93
2023-02-14T04:45:49.914Z,20.98
2023-02-14T04:46:54.285Z,20.98
2023-02-14T04:47:58.684Z,20.94
2023-02-14T04:49:02.971Z,20.91
2023-02-14T04:50:07.264Z,20.9
2023-02-14T04:51:11.646Z,20.94
2023-02-14T04:52:15.957Z,20.93
2023-02-14T04:53:20.232Z,20.95
2023-02-14T04:54:24.600Z,20.98
2023-02-14T04:55:28.891Z,20.97
2023-02-14T04:56:33.164Z,21
2023-02-14T04:57:37.507Z,21
2023-02-14T04:58:41.799Z,21.02
2023-02-14T04:59:46.096Z,21.01
2023-02-14T05:00:50.473Z,21.01
2023-02-14T05:01:55.030Z,20.98
2023-02-14T05:02:59.577Z,20.95
2023-02-14T05:04:03.885Z,20.98
2023-02-14T05:05:08.240Z,20.98
2023-02-14T05:06:12.546Z,21.01
2023-02-14T05:07:16.880Z,21.05
2023-02-14T05:08:21.169Z,21.13
2023-02-14T05:09:25.450Z,21.22
2023-02-14T05:10:29.756Z,21.34
2023-02-14T05:11:34.071Z,21.47
2023-02-14T05:12:38.429Z,21.57
2023-02-14T05:13:42.722Z,21.7
2023-02-14T05:14:47.013Z,21.78
2023-02-14T05:15:51.305Z,21.86
2023-02-14T05:16:55.802Z,21.93
2023-02-14T05:18:00.142Z,22
2023-02-14T05:19:04.612Z,22.04
2023-02-14T05:20:08.935Z,22.1
2023-02-14T05:21:13.217Z,22.13
2023-02-14T05:22:18.579Z,22.18
2023-02-14T05:23:22.974Z,22.22
2023-02-14T05:24:27.305Z,22.24
2023-02-14T05:25:31.625Z,22.26
2023-02-14T05:26:35.928Z,22.26
2023-02-14T05:27:40.226Z,22.28
2023-02-14T05:28:44.533Z,22.29
2023-02-14T05:29:48.833Z,22.29
2023-02-14T05:30:53.278Z,22.3
2023-02-14T05:31:57.814Z,22.28
2023-02-14T05:33:02.293Z,22.28
2023-02-14T05:34:06.576Z,22.28
2023-02-14T05:35:10.904Z,22.27
2023-02-14T05:36:15.200Z,22.26
2023-02-14T05:37:19.495Z,22.24
2023-02-14T05:38:23.790Z,22.23
2023-02-14T05:39:28.083Z,22.19
2023-02-14T05:40:32.387Z,22.16
2023-02-14T05:42:39.159Z,22.13
2023-02-14T05:43:43.470Z,22.11
2023-02-14T05:44:47.748Z,22.08
2023-02-14T05:45:52.151Z,22.05
2023-02-14T05:46:56.730Z,22.01
2023-02-14T05:48:01.028Z,21.99
2023-02-14T05:49:05.383Z,21.97
2023-02-14T05:50:09.691Z,21.93
2023-02-14T05:51:14.014Z,21.93
2023-02-14T05:52:18.416Z,21.91
2023-02-14T05:53:22.732Z,21.89
2023-02-14T05:54:27.052Z,21.87
2023-02-14T05:55:31.349Z,21.85
2023-02-14T05:56:35.740Z,21.83
2023-02-14T05:57:40.082Z,21.81
2023-02-14T05:58:44.374Z,21.79
2023-02-14T05:59:48.690Z,21.78
2023-02-14T06:00:53.031Z,21.75
2023-02-14T06:01:57.447Z,21.74
2023-02-14T06:03:01.871Z,21.72
2023-02-14T06:04:06.241Z,21.69
2023-02-14T06:05:10.797Z,21.69
2023-02-14T06:06:15.140Z,21.69
2023-02-14T06:07:19.447Z,21.66
2023-02-14T06:08:23.765Z,21.64
2023-02-14T06:09:31.133Z,21.65
2023-02-14T06:10:35.456Z,21.65
2023-02-14T06:11:39.799Z,21.67
2023-02-14T06:12:44.069Z,21.67
2023-02-14T06:13:48.385Z,21.67
2023-02-14T06:14:52.692Z,21.64
2023-02-14T06:15:56.979Z,21.61
2023-02-14T06:17:01.342Z,21.62
2023-02-14T06:18:05.859Z,21.62
2023-02-14T06:19:10.160Z,21.6
2023-02-14T06:20:14.475Z,21.58
2023-02-14T06:21:18.782Z,21.58
2023-02-14T06:22:23.182Z,21.59
2023-02-14T06:23:27.477Z,21.57
2023-02-14T06:24:31.772Z,21.56
2023-02-14T06:25:36.055Z,21.54
2023-02-14T06:26:40.356Z,21.53
2023-02-14T06:27:44.936Z,21.53
2023-02-14T06:28:51.814Z,21.51
2023-02-14T06:29:56.173Z,21.5
2023-02-14T06:31:01.132Z,21.5
2023-02-14T06:32:07.403Z,21.48
2023-02-14T06:33:12.305Z,21.48
2023-02-14T06:34:16.596Z,21.46
2023-02-14T06:35:20.885Z,21.48
2023-02-14T06:36:25.639Z,21.46
2023-02-14T06:37:29.954Z,21.45
2023-02-14T06:38:34.263Z,21.44
2023-02-14T06:39:38.563Z,21.44
2023-02-14T06:40:42.888Z,21.45
2023-02-14T06:41:47.196Z,21.43
2023-02-14T06:42:51.475Z,21.44
2023-02-14T06:43:55.772Z,21.41
2023-02-14T06:45:00.050Z,21.43
2023-02-14T06:46:04.375Z,21.43
2023-02-14T06:47:08.893Z,21.43
2023-02-14T06:48:14.206Z,21.44
2023-02-14T06:49:18.514Z,21.49
2023-02-14T06:50:22.871Z,21.5
2023-02-14T06:51:27.173Z,21.53
2023-02-14T06:52:31.451Z,21.5
2023-02-14T06:53:35.846Z,21.49
2023-02-14T06:54:40.156Z,21.48
2023-02-14T06:55:44.657Z,21.48
2023-02-14T06:56:49.134Z,21.48
2023-02-14T06:57:53.434Z,21.45
2023-02-14T06:58:57.738Z,21.44
2023-02-14T07:00:02.036Z,21.44
2023-02-14T07:01:06.330Z,21.44
2023-02-14T07:02:10.870Z,21.45
2023-02-14T07:03:15.463Z,21.42
2023-02-14T07:04:19.742Z,21.43
2023-02-14T07:05:24.059Z,21.41
2023-02-14T07:06:29.372Z,21.4
2023-02-14T07:07:33.668Z,21.39
2023-02-14T07:08:38.014Z,21.38
2023-02-14T07:09:45.020Z,21.41
2023-02-14T07:10:49.309Z,21.45
2023-02-14T07:11:53.586Z,21.48
2023-02-14T07:12:57.917Z,21.56
2023-02-14T07:14:02.207Z,21.6
2023-02-14T07:15:06.679Z,21.59
2023-02-14T07:16:11.039Z,21.63
2023-02-14T07:17:15.518Z,21.61
2023-02-14T07:18:19.820Z,21.59
2023-02-14T07:19:24.173Z,21.56
2023-02-14T07:20:28.494Z,21.52
2023-02-14T07:21:32.917Z,21.53
2023-02-14T07:22:37.326Z,21.52
2023-02-14T07:23:41.637Z,21.49
2023-02-14T07:24:45.938Z,21.49
2023-02-14T07:25:50.229Z,21.46
2023-02-14T07:26:54.577Z,21.46
2023-02-14T07:27:58.905Z,21.43
2023-02-14T07:29:03.249Z,21.39
2023-02-14T07:30:07.650Z,21.37
2023-02-14T07:31:12.380Z,21.4
2023-02-14T07:32:17.145Z,21.37
2023-02-14T07:33:21.948Z,21.4
2023-02-14T07:34:26.260Z,21.37
2023-02-14T07:35:30.689Z,21.33
2023-02-14T07:36:34.991Z,21.32
2023-02-14T07:37:39.286Z,21.29
2023-02-14T07:38:43.568Z,21.28
2023-02-14T07:39:47.912Z,21.27
2023-02-14T07:40:54.756Z,21.32
2023-02-14T07:41:59.376Z,21.32
2023-02-14T07:43:03.684Z,21.35
2023-02-14T07:44:07.994Z,21.35
2023-02-14T07:45:21.833Z,21.31
2023-02-14T07:46:26.563Z,21.28
2023-02-14T07:47:31.110Z,21.27
2023-02-14T07:48:35.426Z,21.32
2023-02-14T07:49:40.030Z,21.32
2023-02-14T07:50:44.366Z,21.27
2023-02-14T07:51:48.692Z,21.32
2023-02-14T07:52:53.022Z,21.3
2023-02-14T07:53:58.340Z,21.28
2023-02-14T07:55:02.638Z,21.26
2023-02-14T07:56:06.993Z,21.31
2023-02-14T07:57:11.354Z,21.37
2023-02-14T07:58:15.665Z,21.41
2023-02-14T07:59:19.950Z,21.43
2023-02-14T08:00:26.705Z,21.47
2023-02-14T08:01:31.136Z,21.49
2023-02-14T08:02:35.558Z,21.49
2023-02-14T08:03:39.884Z,21.49
2023-02-14T08:04:44.217Z,21.53
2023-02-14T08:05:48.568Z,21.53
2023-02-14T08:06:52.879Z,21.53
2023-02-14T08:07:57.184Z,21.54
2023-02-14T08:09:01.483Z,21.54
2023-02-14T08:10:05.826Z,21.55
2023-02-14T08:11:10.138Z,21.53
2023-02-14T08:12:14.440Z,21.55
2023-02-14T08:13:18.807Z,21.57
2023-02-14T08:14:23.361Z,21.57
2023-02-14T08:15:27.692Z,21.56
2023-02-14T08:16:32.109Z,21.59
2023-02-14T08:17:36.750Z,21.6
2023-02-14T08:18:41.040Z,21.59
2023-02-14T08:19:46.418Z,21.58
2023-02-14T08:20:50.726Z,21.59
2023-02-14T08:21:55.295Z,21.58
2023-02-14T08:22:59.585Z,21.57
2023-02-14T08:24:03.851Z,21.56
2023-02-14T08:25:08.154Z,21.55
2023-02-14T08:26:12.468Z,21.53
2023-02-14T08:27:16.744Z,21.51
2023-02-14T08:28:24.252Z,21.51
2023-02-14T08:29:28.595Z,21.49
2023-02-14T08:30:32.945Z,21.48
2023-02-14T08:31:37.571Z,21.49
2023-02-14T08:32:42.158Z,21.5
2023-02-14T08:33:46.651Z,21.51
2023-02-14T08:34:50.917Z,21.51
2023-02-14T08:35:55.401Z,21.51
2023-02-14T08:36:59.696Z,21.51
2023-02-14T08:38:03.971Z,21.52
2023-02-14T08:39:08.329Z,21.52
2023-02-14T08:40:12.665Z,21.53
2023-02-14T08:41:17.052Z,21.52
2023-02-14T08:42:21.360Z,21.51
2023-02-14T08:43:25.706Z,21.44
2023-02-14T08:44:30.000Z,21.42
2023-02-14T08:45:34.443Z,21.38
2023-02-14T08:46:38.820Z,21.36
2023-02-14T08:47:43.399Z,21.34
2023-02-14T08:48:47.787Z,21.32
2023-02-14T08:49:52.080Z,21.33
2023-02-14T08:50:56.406Z,21.33
2023-02-14T08:52:01.831Z,21.27
2023-02-14T08:53:06.145Z,21.15
2023-02-14T08:54:10.430Z,21
2023-02-14T08:55:14.803Z,20.76
2023-02-14T08:56:19.201Z,20.58
2023-02-14T08:57:23.556Z,20.43
2023-02-14T08:58:27.858Z,20.33
2023-02-14T08:59:35.192Z,20.25
2023-02-14T09:00:39.599Z,20.21
2023-02-14T09:01:44.442Z,20.21
2023-02-14T09:02:48.745Z,20.17
2023-02-14T09:03:53.083Z,20.09
2023-02-14T09:04:58.680Z,20.06
2023-02-14T09:06:03.078Z,20
2023-02-14T09:07:07.423Z,19.98
2023-02-14T09:08:11.878Z,19.88
2023-02-14T09:09:16.242Z,19.79
2023-02-14T09:10:20.661Z,19.76
2023-02-14T09:11:25.129Z,19.73
2023-02-14T09:12:29.427Z,19.69
2023-02-14T09:13:33.714Z,19.65
2023-02-14T09:14:38.045Z,19.67
2023-02-14T09:15:42.453Z,19.67
2023-02-14T09:16:46.929Z,19.66
2023-02-14T09:17:51.672Z,19.66
2023-02-14T09:18:56.096Z,19.66
2023-02-14T09:20:00.614Z,19.67
2023-02-14T09:21:04.999Z,19.67
2023-02-14T09:22:09.315Z,19.67
2023-02-14T09:23:13.664Z,19.58
2023-02-14T09:24:17.946Z,19.53
2023-02-14T09:25:22.260Z,19.45
2023-02-14T09:26:26.626Z,19.67
2023-02-14T09:27:30.932Z,19.99
2023-02-14T09:28:35.275Z,20.2
2023-02-14T09:29:39.665Z,20.36
2023-02-14T09:30:43.971Z,20.46
2023-02-14T09:31:48.474Z,20.53
2023-02-14T09:32:53.143Z,20.57
2023-02-14T09:33:57.427Z,20.63
2023-02-14T09:35:01.704Z,20.67
2023-02-14T09:36:07.050Z,20.71
2023-02-14T09:37:11.379Z,20.73
2023-02-14T09:38:15.680Z,20.75
2023-02-14T09:39:22.246Z,20.77
2023-02-14T09:40:26.554Z,20.81
2023-02-14T09:41:30.896Z,20.82
2023-02-14T09:42:35.191Z,20.84
2023-02-14T09:43:39.485Z,20.85
2023-02-14T09:44:43.773Z,20.86
2023-02-14T09:45:48.290Z,20.86
2023-02-14T09:46:52.695Z,20.88
2023-02-14T09:47:56.994Z,20.88
2023-02-14T09:49:01.356Z,20.86
2023-02-14T09:50:05.974Z,20.88
2023-02-14T09:51:10.521Z,20.9
2023-02-14T09:52:16.294Z,20.91
2023-02-14T09:53:20.885Z,20.91
2023-02-14T09:54:25.244Z,20.93
2023-02-14T09:55:29.572Z,20.97
2023-02-14T09:56:42.824Z,21.01
2023-02-14T09:57:54.986Z,21.04
2023-02-14T09:58:59.260Z,21.09
2023-02-14T10:00:03.599Z,21.16
2023-02-14T10:01:07.961Z,21.24
2023-02-14T10:02:12.456Z,21.34
2023-02-14T10:03:16.873Z,21.4
2023-02-14T10:04:21.183Z,21.46
2023-02-14T10:05:25.524Z,21.53
2023-02-14T10:06:29.805Z,21.59
2023-02-14T10:07:34.089Z,21.64
2023-02-14T10:08:38.407Z,21.68
2023-02-14T10:09:42.747Z,21.7
2023-02-14T10:10:47.025Z,21.73
2023-02-14T10:11:51.365Z,21.75
2023-02-14T10:12:55.755Z,21.77
2023-02-14T10:14:00.106Z,21.74
2023-02-14T10:15:04.398Z,21.75
2023-02-14T10:16:08.787Z,21.73
2023-02-14T10:17:13.247Z,21.74
2023-02-14T10:18:17.554Z,21.71
2023-02-14T10:19:21.862Z,21.71
2023-02-14T10:20:26.158Z,21.7
2023-02-14T10:21:30.835Z,21.68
2023-02-14T10:22:35.132Z,21.68
2023-02-14T10:23:39.430Z,21.64
2023-02-14T10:24:43.780Z,21.64
2023-02-14T10:25:48.096Z,21.61
2023-02-14T10:26:52.422Z,21.6
2023-02-14T10:27:56.732Z,21.59
2023-02-14T10:29:01.015Z,21.56
2023-02-14T10:30:05.383Z,21.55
2023-02-14T10:31:09.878Z,21.51
2023-02-14T10:32:14.324Z,21.49
2023-02-14T10:33:18.793Z,21.49
2023-02-14T10:34:23.101Z,21.47
2023-02-14T10:35:27.384Z,21.45
2023-02-14T10:36:31.661Z,21.45
2023-02-14T10:37:35.955Z,21.43
2023-02-14T10:38:40.258Z,21.43
2023-02-14T10:39:44.601Z,21.41
2023-02-14T10:40:48.908Z,21.42
2023-02-14T10:41:53.202Z,21.41
2023-02-14T10:42:57.502Z,21.42
2023-02-14T10:44:01.784Z,21.43
2023-02-14T10:45:06.113Z,21.44
2023-02-14T10:46:10.497Z,21.46
2023-02-14T10:47:15.064Z,21.47
2023-02-14T10:48:19.395Z,21.47
2023-02-14T10:49:23.716Z,21.5
2023-02-14T10:50:28.063Z,21.52
2023-02-14T10:51:34.020Z,21.56
2023-02-14T10:52:38.421Z,21.6
2023-02-14T10:53:42.728Z,21.67
2023-02-14T10:54:47.074Z,21.73
2023-02-14T10:55:51.414Z,21.77
2023-02-14T10:56:58.200Z,21.81
2023-02-14T10:58:02.716Z,21.84
2023-02-14T10:59:07.013Z,21.87
2023-02-14T11:00:11.345Z,21.91
2023-02-14T11:01:15.729Z,21.93
2023-02-14T11:02:20.247Z,21.96
2023-02-14T11:03:24.647Z,21.95
2023-02-14T11:04:29.048Z,21.96
2023-02-14T11:05:33.386Z,21.97
2023-02-14T11:06:37.707Z,21.94
2023-02-14T11:07:42.039Z,21.93
2023-02-14T11:08:46.355Z,21.91
2023-02-14T11:09:50.730Z,21.9
2023-02-14T11:10:55.622Z,21.89
2023-02-14T11:12:00.086Z,21.87
2023-02-14T11:13:04.395Z,21.85
2023-02-14T11:14:08.674Z,21.84
2023-02-14T11:15:13.015Z,21.82
2023-02-14T11:16:17.522Z,21.82
2023-02-14T11:17:21.950Z,21.78
2023-02-14T11:18:26.243Z,21.77
2023-02-14T11:19:30.553Z,21.75
2023-02-14T11:20:34.885Z,21.73
2023-02-14T11:21:39.198Z,21.72
2023-02-14T11:22:43.680Z,21.69
2023-02-14T11:23:47.994Z,21.69
2023-02-14T11:24:52.307Z,21.68
2023-02-14T11:25:56.809Z,21.65
2023-02-14T11:27:01.815Z,21.63
2023-02-14T11:28:06.132Z,21.61
2023-02-14T11:29:10.443Z,21.61
2023-02-14T11:30:14.732Z,21.59
2023-02-14T11:31:19.324Z,21.59
2023-02-14T11:32:23.927Z,21.57
2023-02-14T11:33:28.241Z,21.56
2023-02-14T11:34:32.516Z,21.56
2023-02-14T11:35:36.810Z,21.55
2023-02-14T11:36:41.082Z,21.52
2023-02-14T11:37:45.436Z,21.53
2023-02-14T11:38:49.730Z,21.55
2023-02-14T11:39:53.999Z,21.55
2023-02-14T11:40:58.801Z,21.57
2023-02-14T11:42:04.142Z,21.57
2023-02-14T11:43:13.722Z,21.56
2023-02-14T11:44:18.646Z,21.56
2023-02-14T11:45:22.917Z,21.57
2023-02-14T11:46:27.291Z,21.57
2023-02-14T11:47:31.715Z,21.62
2023-02-14T11:48:38.533Z,21.64
2023-02-14T11:49:43.155Z,21.63
2023-02-14T11:50:47.440Z,21.61
2023-02-14T11:51:51.718Z,21.6
2023-02-14T11:52:56.189Z,21.59
2023-02-14T11:54:00.609Z,21.58
2023-02-14T11:55:05.009Z,21.56
2023-02-14T11:56:09.303Z,21.54
2023-02-14T11:57:13.581Z,21.53
2023-02-14T11:58:17.880Z,21.52
2023-02-14T11:59:23.219Z,21.51
2023-02-14T12:00:27.530Z,21.51
2023-02-14T12:01:31.827Z,21.48
2023-02-14T12:02:36.139Z,21.48
2023-02-14T12:03:40.652Z,21.48
2023-02-14T12:04:46.689Z,21.48
2023-02-14T12:05:51.144Z,21.49
2023-02-14T12:06:55.501Z,21.49
2023-02-14T12:07:59.927Z,21.5
2023-02-14T12:09:04.241Z,21.51
2023-02-14T12:10:08.545Z,21.53
2023-02-14T12:11:12.854Z,21.54
2023-02-14T12:12:17.200Z,21.58
2023-02-14T12:13:21.479Z,21.59
2023-02-14T12:14:25.762Z,21.65
2023-02-14T12:15:30.114Z,21.7
2023-02-14T12:16:34.497Z,21.75
2023-02-14T12:17:38.840Z,21.79
2023-02-14T12:18:43.130Z,21.83
2023-02-14T12:19:47.450Z,21.86
2023-02-14T12:20:53.978Z,21.89
2023-02-14T12:21:58.242Z,21.92
2023-02-14T12:23:02.525Z,21.93
2023-02-14T12:24:06.827Z,21.93
2023-02-14T12:25:11.153Z,21.95
2023-02-14T12:26:15.437Z,21.95
2023-02-14T12:27:19.707Z,21.96
2023-02-14T12:28:24.029Z,21.96
2023-02-14T12:29:28.311Z,21.96
2023-02-14T12:30:32.649Z,21.95
2023-02-14T12:31:37.040Z,21.94
2023-02-14T12:32:41.724Z,21.93
2023-02-14T12:33:47.157Z,21.94
2023-02-14T12:34:53.887Z,21.91
2023-02-14T12:35:58.153Z,21.91
2023-02-14T12:37:02.446Z,21.88
2023-02-14T12:38:06.763Z,21.88
2023-02-14T12:39:11.035Z,21.86
2023-02-14T12:40:15.346Z,21.85
2023-02-14T12:41:19.786Z,21.83
2023-02-14T12:42:24.114Z,21.81
2023-02-14T12:43:28.450Z,21.81
2023-02-14T12:44:32.811Z,21.79
2023-02-14T12:45:37.093Z,21.78
2023-02-14T12:46:41.385Z,21.76
2023-02-14T12:47:45.671Z,21.76
2023-02-14T12:48:49.951Z,21.74
2023-02-14T12:49:54.312Z,21.73
2023-02-14T12:50:59.227Z,21.71
2023-02-14T12:52:04.725Z,21.7
2023-02-14T12:53:09.025Z,21.67
2023-02-14T12:54:13.398Z,21.67
2023-02-14T12:55:17.705Z,21.65
2023-02-14T12:56:22.067Z,21.62
2023-02-14T12:57:26.372Z,21.61
2023-02-14T12:58:30.667Z,21.6
2023-02-14T12:59:34.954Z,21.58
2023-02-14T13:00:39.253Z,21.57
2023-02-14T13:01:43.656Z,21.56
2023-02-14T13:02:48.036Z,21.55
2023-02-14T13:03:52.472Z,21.53
2023-02-14T13:04:56.743Z,21.52
2023-02-14T13:06:01.056Z,21.5
2023-02-14T13:07:05.398Z,21.5
2023-02-14T13:08:09.699Z,21.5
2023-02-14T13:09:14.028Z,21.48
2023-02-14T13:10:18.353Z,21.47
2023-02-14T13:11:22.645Z,21.46
2023-02-14T13:12:26.986Z,21.47
2023-02-14T13:13:31.266Z,21.47
2023-02-14T13:14:35.721Z,21.45
2023-02-14T13:15:40.038Z,21.45
2023-02-14T13:16:44.339Z,21.44
2023-02-14T13:17:48.711Z,21.45
2023-02-14T13:18:53.035Z,21.45
2023-02-14T13:19:57.328Z,21.46
2023-02-14T13:21:01.932Z,21.49
2023-02-14T13:22:06.626Z,21.5
2023-02-14T13:23:10.958Z,21.53
2023-02-14T13:24:15.280Z,21.56
2023-02-14T13:25:19.572Z,21.6
2023-02-14T13:26:23.852Z,21.66
2023-02-14T13:27:28.695Z,21.69
2023-02-14T13:28:33.458Z,21.74
2023-02-14T13:29:37.753Z,21.77
2023-02-14T13:30:42.128Z,21.81
2023-02-14T13:31:46.763Z,21.84
2023-02-14T13:32:51.497Z,21.86
2023-02-14T13:33:55.768Z,21.89
2023-02-14T13:35:00.078Z,21.91
2023-02-14T13:36:04.403Z,21.92
2023-02-14T13:37:08.705Z,21.93
2023-02-14T13:38:12.983Z,21.92
2023-02-14T13:39:17.494Z,21.92
2023-02-14T13:40:21.775Z,21.91
2023-02-14T13:41:26.064Z,21.9
2023-02-14T13:42:30.599Z,21.88
2023-02-14T13:43:34.925Z,21.88
2023-02-14T13:44:39.222Z,21.88
2023-02-14T13:45:43.622Z,21.86
2023-02-14T13:46:48.010Z,21.85
2023-02-14T13:47:52.527Z,21.81
2023-02-14T13:48:57.142Z,21.81
2023-02-14T13:50:01.694Z,21.8
2023-02-14T13:51:06.016Z,21.79
2023-02-14T13:52:12.580Z,21.77
2023-02-14T13:53:16.909Z,21.77
2023-02-14T13:54:21.570Z,21.76
2023-02-14T13:55:25.870Z,21.74